Time;durP1;ratioP1;P1;durP2;ratioP2;P2;SDS_P1;SDS_P2;PMS_P1;PMS_P2;Temp;Humidity;BMP_temperature;BMP_pressure;BME280_temperature;BME280_humidity;BME280_pressure;Samples;Min_cycle;Max_cycle;Signal;HPM_P1;HPM_P2
2021/10/09 00:01:34;;;;;;;0.70;0.60;;;;;;;8.13;100.00;-20903.53;4957206;28;20457;-72
2021/10/09 00:04:02;;;;;;;0.70;0.63;;;;;;;8.13;100.00;-20903.53;4974023;28;20478;-74
2021/10/09 00:06:29;;;;;;;0.70;0.60;;;;;;;8.12;100.00;-20903.25;4974836;28;20420;-73
2021/10/09 00:08:57;;;;;;;0.80;0.80;;;;;;;8.12;100.00;-20903.25;4973486;28;20475;-73
2021/10/09 00:11:39;;;;;;;0.70;0.60;;;;;;;8.09;100.00;-20902.41;4989987;28;20435;-73
2021/10/09 00:14:12;;;;;;;0.70;0.60;;;;;;;8.00;100.00;-20899.94;4974368;28;20475;-73
2021/10/09 00:16:45;;;;;;;0.80;0.70;;;;;;;7.92;100.00;-20897.84;4974755;28;20427;-73
2021/10/09 00:19:15;;;;;;;0.80;0.80;;;;;;;7.96;100.00;-20898.97;4973306;28;20863;-72
2021/10/09 00:21:45;;;;;;;0.70;0.60;;;;;;;7.88;100.00;-20896.59;4974648;28;20454;-72
2021/10/09 00:24:12;;;;;;;0.70;0.60;;;;;;;7.84;100.00;-20895.47;4973343;28;20498;-73
2021/10/09 00:26:40;;;;;;;0.70;0.60;;;;;;;7.81;100.00;-20894.66;4973051;28;20447;-73
2021/10/09 00:29:07;;;;;;;0.70;0.60;;;;;;;7.83;100.00;-20895.22;4973490;28;20445;-72
2021/10/09 00:31:34;;;;;;;0.80;0.80;;;;;;;7.74;100.00;-20893.00;4973709;28;20443;-73
2021/10/09 00:34:06;;;;;;;0.70;0.60;;;;;;;7.74;100.00;-20892.84;4972379;28;20573;-73
2021/10/09 00:36:38;;;;;;;0.73;0.73;;;;;;;7.74;100.00;-20893.00;4972582;28;20447;-71
2021/10/09 00:39:08;;;;;;;0.70;0.60;;;;;;;7.71;100.00;-20892.16;5004452;28;20452;-72
2021/10/09 00:41:40;;;;;;;0.70;0.60;;;;;;;7.68;100.00;-20891.31;4966532;28;20432;-72
2021/10/09 00:44:13;;;;;;;0.70;0.60;;;;;;;7.71;100.00;-20892.16;4969158;28;20581;-72
2021/10/09 00:46:46;;;;;;;0.70;0.60;;;;;;;7.70;100.00;-20891.88;4956431;28;20432;-72
2021/10/09 00:49:17;;;;;;;0.70;0.60;;;;;;;7.81;100.00;-20894.78;4969834;28;20444;-73
2021/10/09 00:51:48;;;;;;;0.90;0.90;;;;;;;7.84;100.00;-20895.47;4969520;28;20508;-72
2021/10/09 00:54:33;;;;;;;0.70;0.60;;;;;;;7.77;100.00;-20893.53;4967477;28;21060;-71
2021/10/09 00:57:04;;;;;;;0.80;0.80;;;;;;;7.84;100.00;-20895.63;4973039;28;20439;-72
2021/10/09 00:59:39;;;;;;;0.70;0.60;;;;;;;7.75;100.00;-20893.13;4972643;28;20494;-72
2021/10/09 01:02:09;;;;;;;0.70;0.60;;;;;;;7.64;100.00;-20890.22;4972306;28;20447;-73
2021/10/09 01:04:42;;;;;;;0.70;0.60;;;;;;;7.57;100.00;-20888.13;4970552;28;20470;-72
2021/10/09 01:07:14;;;;;;;0.70;0.50;;;;;;;7.54;100.00;-20887.44;4973201;28;20809;-72
2021/10/09 01:10:09;;;;;;;0.90;0.90;;;;;;;7.46;100.00;-20885.22;4973623;28;20484;-72
2021/10/09 01:12:46;;;;;;;0.70;0.60;;;;;;;7.42;100.00;-20884.25;4975232;28;20522;-72
2021/10/09 01:15:24;;;;;;;0.77;0.77;;;;;;;7.40;100.00;-20883.53;4973210;28;20482;-72
2021/10/09 01:18:18;;;;;;;0.70;0.60;;;;;;;7.36;100.00;-20882.44;4942395;29;20457;-72
2021/10/09 01:21:01;;;;;;;0.70;0.70;;;;;;;7.35;100.00;-20882.16;4940303;28;20454;-73
2021/10/09 01:23:36;;;;;;;0.70;0.60;;;;;;;7.38;100.00;-20883.13;4960737;28;20842;-72
2021/10/09 01:26:11;;;;;;;0.70;0.70;;;;;;;7.40;100.00;-20883.69;4961216;28;20486;-73
2021/10/09 01:28:49;;;;;;;0.70;0.70;;;;;;;7.37;100.00;-20882.72;4961909;28;20451;-72
2021/10/09 01:31:28;;;;;;;0.70;0.70;;;;;;;7.36;100.00;-20882.44;4977158;28;20948;-72
2021/10/09 01:34:02;;;;;;;0.70;0.60;;;;;;;7.31;100.00;-20881.06;4983622;28;20483;-72
2021/10/09 01:36:37;;;;;;;1.50;1.40;;;;;;;7.19;100.00;-20878.00;4973258;28;20467;-72
2021/10/09 01:39:28;;;;;;;0.73;0.67;;;;;;;7.14;100.00;-20876.59;4977791;28;20449;-74
2021/10/09 01:42:00;;;;;;;0.70;0.60;;;;;;;7.05;100.00;-20873.97;4976491;28;20445;-74
2021/10/09 01:44:31;;;;;;;5.70;2.03;;;;;;;6.97;100.00;-20871.88;4979524;28;20962;-72
2021/10/09 01:46:59;;;;;;;0.70;0.60;;;;;;;6.95;100.00;-20871.31;4976526;28;20450;-73
2021/10/09 01:49:32;;;;;;;0.70;0.67;;;;;;;6.93;100.00;-20870.91;4975444;28;20462;-72
2021/10/09 01:52:06;;;;;;;0.70;0.60;;;;;;;6.94;100.00;-20871.06;4990321;28;20461;-72
2021/10/09 01:54:54;;;;;;;0.70;0.60;;;;;;;6.90;100.00;-20869.94;4958534;29;20539;-72
2021/10/09 01:57:23;;;;;;;0.70;0.60;;;;;;;6.91;100.00;-20870.22;4941359;29;20436;-72
2021/10/09 01:59:54;;;;;;;0.70;0.60;;;;;;;6.87;100.00;-20869.09;4972345;28;20554;-73
2021/10/09 02:02:25;;;;;;;0.70;0.60;;;;;;;6.92;100.00;-20870.50;4975363;28;20540;-72
2021/10/09 02:04:53;;;;;;;0.70;0.60;;;;;;;6.85;100.00;-20868.53;4971271;28;20253;-72
2021/10/09 02:07:24;;;;;;;0.77;0.70;;;;;;;6.77;100.00;-20866.59;4974770;28;20463;-73
2021/10/09 02:09:55;;;;;;;0.70;0.60;;;;;;;6.85;100.00;-20868.53;4973628;28;20197;-72
2021/10/09 02:12:25;;;;;;;0.70;0.67;;;;;;;6.74;100.00;-20865.78;4974743;28;20443;-72
2021/10/09 02:15:00;;;;;;;0.70;0.60;;;;;;;6.76;100.00;-20866.19;4958423;28;20482;-73
2021/10/09 02:25:46;;;;;;;0.70;0.70;;;;;;;6.51;100.00;-20859.38;4955126;29;20197;-72
2021/10/09 02:28:18;;;;;;;0.80;0.80;;;;;;;6.52;100.00;-20859.66;4960287;28;20666;-72
2021/10/09 02:30:46;;;;;;;0.70;0.60;;;;;;;6.54;100.00;-20860.22;4975161;28;20204;-72
2021/10/09 02:33:15;;;;;;;0.70;0.60;;;;;;;6.49;100.00;-20858.81;4974399;28;20446;-72
2021/10/09 02:35:43;;;;;;;0.70;0.60;;;;;;;6.46;100.00;-20858.00;4990143;28;20471;-72
2021/10/09 02:38:13;;;;;;;0.70;0.60;;;;;;;6.41;100.00;-20856.75;4973006;28;20458;-73
2021/10/09 02:40:41;;;;;;;0.70;0.60;;;;;;;6.35;100.00;-20854.94;4958423;28;20431;-73
2021/10/09 02:43:15;;;;;;;0.70;0.60;;;;;;;6.28;100.00;-20853.25;4989208;28;20445;-72
2021/10/09 02:45:43;;;;;;;0.70;0.60;;;;;;;6.30;100.00;-20853.69;4956085;28;20640;-72
2021/10/09 02:48:15;;;;;;;0.70;0.60;;;;;;;6.28;100.00;-20853.25;4955136;28;20437;-72
2021/10/09 02:50:45;;;;;;;0.70;0.60;;;;;;;6.24;100.00;-20852.00;4969718;28;20257;-72
2021/10/09 02:53:17;;;;;;;1.17;1.08;;;;;;;6.19;100.00;-20850.63;4964313;28;20468;-73
2021/10/09 02:55:44;;;;;;;0.80;0.70;;;;;;;6.15;100.00;-20849.66;4973800;28;20657;-75
2021/10/09 02:58:11;;;;;;;0.70;0.60;;;;;;;6.14;100.00;-20849.22;4972088;28;20466;-73
2021/10/09 03:00:38;;;;;;;1.43;1.33;;;;;;;6.14;100.00;-20849.38;4973331;28;20456;-73
2021/10/09 03:03:06;;;;;;;0.90;0.90;;;;;;;6.14;100.00;-20849.38;4958101;28;21025;-73
2021/10/09 03:05:34;;;;;;;0.70;0.60;;;;;;;6.12;100.00;-20848.81;4935272;28;1166464;-73
2021/10/09 03:08:03;;;;;;;0.70;0.60;;;;;;;6.12;100.00;-20848.81;4971207;28;20639;-72
2021/10/09 03:10:34;;;;;;;0.70;0.60;;;;;;;6.12;100.00;-20848.81;5006495;28;20567;-73
2021/10/09 03:13:01;;;;;;;0.70;0.60;;;;;;;6.06;100.00;-20847.13;4974229;28;20759;-72
2021/10/09 03:15:29;;;;;;;0.70;0.60;;;;;;;6.08;100.00;-20847.69;4958988;28;20463;-72
2021/10/09 03:17:56;;;;;;;1.20;1.10;;;;;;;6.04;100.00;-20846.59;4974729;28;20918;-72
2021/10/09 03:20:24;;;;;;;0.70;0.60;;;;;;;6.02;100.00;-20846.03;4965471;28;20227;-74
2021/10/09 03:22:51;;;;;;;0.70;0.60;;;;;;;6.01;100.00;-20845.75;4973924;28;20216;-73
2021/10/09 03:25:18;;;;;;;0.70;0.70;;;;;;;6.00;100.00;-20845.63;4974859;28;20439;-72
2021/10/09 03:27:51;;;;;;;0.70;0.60;;;;;;;6.00;100.00;-20845.47;4974772;28;20207;-71
2021/10/09 03:30:20;;;;;;;1.35;1.25;;;;;;;6.00;100.00;-20845.63;4958081;28;20204;-73
2021/10/09 03:32:47;;;;;;;0.80;0.70;;;;;;;5.94;100.00;-20843.81;4983900;28;20200;-72
2021/10/09 03:35:17;;;;;;;0.80;0.70;;;;;;;5.95;100.00;-20844.09;4973922;28;20212;-73
2021/10/09 03:37:51;;;;;;;0.70;0.60;;;;;;;5.91;100.00;-20843.09;4973933;28;20212;-72
2021/10/09 03:40:23;;;;;;;0.80;0.70;;;;;;;5.90;100.00;-20842.81;4974405;28;20200;-73
2021/10/09 03:42:55;;;;;;;0.80;0.70;;;;;;;5.89;100.00;-20842.56;4973658;28;20695;-72
2021/10/09 03:45:40;;;;;;;0.70;0.60;;;;;;;5.87;100.00;-20842.00;4990420;28;20532;-72
2021/10/09 03:48:17;;;;;;;0.70;0.60;;;;;;;6.03;100.00;-20846.31;4973886;28;20590;-73
2021/10/09 03:53:33;;;;;;;0.70;0.60;;;;;;;5.97;100.00;-20844.63;4962152;28;20475;-72
2021/10/09 03:56:00;;;;;;;0.70;0.60;;;;;;;5.91;100.00;-20842.97;4960498;28;20667;-72
2021/10/09 03:58:32;;;;;;;0.70;0.60;;;;;;;5.90;100.00;-20842.69;4973538;28;20554;-73
2021/10/09 04:01:00;;;;;;;0.70;0.60;;;;;;;5.84;100.00;-20841.16;4988257;28;20542;-73
2021/10/09 04:03:27;;;;;;;0.70;0.60;;;;;;;5.82;100.00;-20840.75;4969209;28;20560;-73
2021/10/09 04:05:56;;;;;;;0.70;0.60;;;;;;;5.78;100.00;-20839.63;4954730;28;20456;-73
2021/10/09 04:08:23;;;;;;;0.70;0.70;;;;;;;5.73;100.00;-20838.22;4969998;28;20244;-73
2021/10/09 04:10:50;;;;;;;0.77;0.70;;;;;;;5.71;100.00;-20837.69;4970494;28;20199;-73
2021/10/09 04:13:17;;;;;;;0.70;0.60;;;;;;;5.73;100.00;-20838.22;4944572;28;20275;-72
2021/10/09 04:15:45;;;;;;;1.35;1.25;;;;;;;5.96;100.00;-20844.50;4973049;28;21869;-72
2021/10/09 04:18:13;;;;;;;0.70;0.60;;;;;;;5.93;100.00;-20843.53;4973925;28;20188;-72
2021/10/09 04:20:40;;;;;;;0.70;0.60;;;;;;;5.81;100.00;-20840.47;4973670;28;20204;-72
2021/10/09 04:23:10;;;;;;;0.70;0.60;;;;;;;5.80;100.00;-20840.19;4971698;28;20482;-72
2021/10/09 04:25:36;;;;;;;0.70;0.70;;;;;;;5.82;100.00;-20840.59;4967529;28;21020;-72
2021/10/09 04:28:04;;;;;;;0.80;0.70;;;;;;;5.66;100.00;-20836.28;4953863;29;20954;-72
2021/10/09 04:30:33;;;;;;;0.70;0.60;;;;;;;5.60;100.00;-20834.47;4963746;28;20201;-74
2021/10/09 04:33:02;;;;;;;0.70;0.65;;;;;;;5.57;100.00;-20833.78;4973221;28;20204;-72
2021/10/09 04:35:35;;;;;;;0.80;0.80;;;;;;;5.53;100.00;-20832.66;4973673;28;20213;-73
2021/10/09 04:38:08;;;;;;;0.70;0.60;;;;;;;5.53;100.00;-20832.66;4973342;28;20220;-72
2021/10/09 04:40:37;;;;;;;0.70;0.70;;;;;;;5.49;100.00;-20831.56;4973955;28;20520;-71
2021/10/09 04:43:05;;;;;;;0.70;0.70;;;;;;;5.40;100.00;-20829.19;4972269;28;20207;-72
2021/10/09 04:45:33;;;;;;;0.80;0.80;;;;;;;5.41;100.00;-20829.31;4972921;28;20580;-72
2021/10/09 04:48:04;;;;;;;0.70;0.60;;;;;;;5.54;100.00;-20832.94;4972450;28;20664;-72
2021/10/09 04:50:32;;;;;;;0.70;0.70;;;;;;;5.56;100.00;-20833.66;4972477;28;20231;-72
2021/10/09 04:53:03;;;;;;;1.42;1.02;;;;;;;5.52;100.00;-20832.53;4971289;28;20716;-74
2021/10/09 04:55:30;;;;;;;0.70;0.60;;;;;;;5.52;100.00;-20832.38;4972818;28;20763;-74
2021/10/09 04:57:57;;;;;;;1.25;1.15;;;;;;;5.50;100.00;-20831.84;4972805;28;20195;-72
2021/10/09 05:00:24;;;;;;;0.70;0.60;;;;;;;5.49;100.00;-20831.69;4969682;28;20200;-72
2021/10/09 05:02:52;;;;;;;0.70;0.60;;;;;;;5.49;100.00;-20831.56;4964491;28;20201;-73
2021/10/09 05:05:21;;;;;;;0.70;0.70;;;;;;;5.43;100.00;-20829.88;4937416;29;20287;-72
2021/10/09 05:07:50;;;;;;;0.70;0.63;;;;;;;5.48;100.00;-20831.28;4967590;28;20211;-72
2021/10/09 05:10:19;;;;;;;0.70;0.60;;;;;;;5.50;100.00;-20831.84;4973388;28;20200;-72
2021/10/09 05:13:05;;;;;;;0.70;0.60;;;;;;;5.56;100.00;-20833.50;4968928;28;20540;-73
2021/10/09 05:15:33;;;;;;;0.70;0.70;;;;;;;5.60;100.00;-20834.63;4953992;29;20224;-71
2021/10/09 05:18:00;;;;;;;0.70;0.60;;;;;;;5.67;100.00;-20836.56;4970201;28;20567;-73
2021/10/09 05:20:29;;;;;;;0.90;0.90;;;;;;;5.68;100.00;-20836.72;4956809;28;20530;-74
2021/10/09 05:22:58;;;;;;;0.70;0.60;;;;;;;5.62;100.00;-20835.16;4968753;28;20263;-73
2021/10/09 05:25:25;;;;;;;0.70;0.60;;;;;;;5.64;100.00;-20835.59;4969310;28;20548;-74
2021/10/09 05:28:06;;;;;;;0.80;0.77;;;;;;;5.62;100.00;-20835.16;4956596;28;20570;-73
2021/10/09 05:30:35;;;;;;;0.70;0.70;;;;;;;5.62;100.00;-20835.03;4972983;28;20188;-72
2021/10/09 05:35:44;;;;;;;0.70;0.70;;;;;;;5.54;100.00;-20833.09;4989113;28;20294;-72
2021/10/09 05:38:14;;;;;;;0.85;0.85;;;;;;;5.53;100.00;-20832.81;4973720;28;20224;-72
2021/10/09 05:40:43;;;;;;;0.70;0.60;;;;;;;5.47;100.00;-20831.00;4969963;28;20208;-73
2021/10/09 05:43:14;;;;;;;0.70;0.60;;;;;;;5.48;100.00;-20831.28;4972340;28;20197;-72
2021/10/09 05:45:41;;;;;;;0.70;0.60;;;;;;;5.44;100.00;-20830.16;4972745;28;20239;-72
2021/10/09 05:48:11;;;;;;;0.70;0.60;;;;;;;5.52;100.00;-20832.38;4972917;28;20196;-72
2021/10/09 05:58:30;;;;;;;0.70;0.65;;;;;;;5.49;100.00;-20831.56;4974128;28;20208;-72
2021/10/09 06:26:14;;;;;;;0.85;0.85;;;;;;;5.69;100.00;-20837.13;4975941;28;20189;-72
2021/10/09 06:48:39;;;;;;;0.70;0.60;;;;;;;6.16;100.00;-20849.78;4973929;28;20200;-72
2021/10/09 06:59:31;;;;;;;0.70;0.60;;;;;;;6.41;100.00;-20856.59;4959487;28;20523;-73
2021/10/09 07:02:00;;;;;;;0.70;0.60;;;;;;;6.47;100.00;-20858.41;4972194;28;20303;-73
2021/10/09 07:04:28;;;;;;;0.70;0.70;;;;;;;6.53;100.00;-20859.94;4984596;28;20475;-73
2021/10/09 07:07:00;;;;;;;0.70;0.60;;;;;;;6.64;100.00;-20862.84;4967709;28;20501;-73
2021/10/09 07:09:32;;;;;;;0.70;0.60;;;;;;;6.73;100.00;-20865.50;4955578;28;20523;-73
2021/10/09 07:12:03;;;;;;;0.70;0.70;;;;;;;6.92;100.00;-20870.50;4955662;28;20452;-73
2021/10/09 07:14:37;;;;;;;0.70;0.60;;;;;;;7.01;100.00;-20873.13;4969075;28;20545;-73
2021/10/09 07:17:05;;;;;;;0.70;0.60;;;;;;;7.16;100.00;-20877.03;4978258;28;20558;-73
2021/10/09 07:19:34;;;;;;;0.70;0.50;;;;;;;7.22;100.00;-20878.81;4970855;28;20449;-72
2021/10/09 07:22:02;;;;;;;0.80;0.80;;;;;;;7.36;100.00;-20882.44;4971823;28;20454;-71
2021/10/09 07:24:50;;;;;;;0.70;0.60;;;;;;;7.45;100.00;-20885.06;4973591;28;20458;-72
2021/10/09 07:27:17;;;;;;;0.73;0.73;;;;;;;7.59;100.00;-20888.81;4958043;28;20436;-71
2021/10/09 07:29:47;;;;;;;0.70;0.60;;;;;;;7.73;100.00;-20892.56;4973548;28;20466;-72
2021/10/09 07:32:14;;;;;;;0.80;0.80;;;;;;;7.90;100.00;-20897.28;4974177;28;20546;-72
2021/10/09 07:34:41;;;;;;;0.70;0.60;;;;;;;8.07;100.00;-20901.88;4973381;28;20811;-72
2021/10/09 07:37:08;;;;;;;1.27;1.17;;;;;;;8.21;100.00;-20905.63;4974408;28;20467;-72
2021/10/09 07:39:37;;;;;;;0.70;0.60;;;;;;;8.30;100.00;-20907.97;4973856;28;20934;-72
2021/10/09 07:42:04;;;;;;;0.70;0.60;;;;;;;8.29;100.00;-20907.69;4971022;28;20541;-73
2021/10/09 07:44:31;;;;;;;0.70;0.60;;;;;;;8.48;100.00;-20912.97;4972513;28;20886;-72
2021/10/09 07:47:01;;;;;;;1.37;1.27;;;;;;;8.62;100.00;-20916.84;4974779;28;20487;-72
2021/10/09 07:49:28;;;;;;;0.70;0.60;;;;;;;8.78;100.00;-20921.00;4973540;28;20479;-71
2021/10/09 07:51:55;;;;;;;0.70;0.60;;;;;;;9.04;100.00;-20928.22;4970904;28;20587;-73
2021/10/09 07:54:22;;;;;;;0.70;0.60;;;;;;;9.49;100.00;-20940.41;4975064;28;20448;-72
2021/10/09 07:56:49;;;;;;;0.77;0.77;;;;;;;9.72;100.00;-20946.50;4974553;28;20612;-71
2021/10/09 07:59:16;;;;;;;0.70;0.50;;;;;;;9.84;100.00;-20949.81;4975589;28;20447;-72
2021/10/09 08:01:43;;;;;;;0.70;0.70;;;;;;;10.05;100.00;-20955.66;4975800;28;20513;-72
2021/10/09 08:04:15;;;;;;;1.17;1.10;;;;;;;10.12;100.00;-20957.56;4974023;28;20436;-72
2021/10/09 08:06:41;;;;;;;0.70;0.60;;;;;;;10.13;100.00;-20957.84;4973698;28;20484;-71
2021/10/09 08:09:09;;;;;;;0.80;0.77;;;;;;;10.22;100.00;-20960.22;4974283;28;20972;-72
2021/10/09 08:11:37;;;;;;;0.70;0.60;;;;;;;10.29;100.00;-20962.00;4987838;28;20466;-72
2021/10/09 08:14:05;;;;;;;0.87;0.87;;;;;;;10.35;100.00;-20963.69;4967392;28;20509;-71
2021/10/09 08:16:32;;;;;;;0.70;0.60;;;;;;;10.39;100.00;-20964.78;4965726;28;20466;-72
2021/10/09 08:19:00;;;;;;;0.70;0.60;;;;;;;10.63;100.00;-20971.41;4965082;28;20444;-71
2021/10/09 08:21:30;;;;;;;0.70;0.60;;;;;;;10.81;100.00;-20976.13;4971832;28;20470;-74
2021/10/09 08:24:09;;;;;;;0.70;0.70;;;;;;;10.88;100.00;-20978.06;4974483;28;20469;-71
2021/10/09 08:40:24;;;;;;;0.70;0.60;;;;;;;11.53;100.00;-20995.75;4973104;28;20471;-72
2021/10/09 08:42:51;;;;;;;0.70;0.60;;;;;;;11.77;100.00;-21002.09;4975877;28;20450;-72
2021/10/09 08:45:19;;;;;;;0.70;0.60;;;;;;;11.92;100.00;-20893.94;4972724;28;20446;-72
2021/10/09 08:47:47;;;;;;;0.80;0.80;;;;;;;12.08;100.00;-20511.69;4988714;28;20833;-72
2021/10/09 08:50:15;;;;;;;0.70;0.60;;;;;;;12.19;100.00;-20130.28;4967083;28;20488;-72
2021/10/09 08:53:01;;;;;;;0.70;0.70;;;;;;;12.61;100.00;-19422.03;4973618;28;20448;-72
2021/10/09 08:55:29;;;;;;;0.70;0.60;;;;;;;12.92;100.00;-18758.19;4974374;28;20433;-73
2021/10/09 08:58:05;;;;;;;0.77;0.77;;;;;;;13.13;100.00;-18153.97;4973934;28;20491;-73
2021/10/09 09:00:40;;;;;;;0.80;0.80;;;;;;;14.10;100.00;-17031.19;4958813;28;20447;-73
2021/10/09 09:03:12;;;;;;;1.97;1.10;;;;;;;15.26;100.00;-15268.31;4989199;28;20781;-74
2021/10/09 09:30:30;;;;;;;0.80;0.70;;;;;;;19.56;100.00;-21211.84;4969682;28;20936;-76
2021/10/09 09:36:50;;;;;;;0.93;0.87;;;;;;;19.83;100.00;-21219.09;4977685;28;20869;-76
2021/10/09 09:39:10;;;;;;;1.47;0.80;;;;;;;19.13;100.00;-21200.38;4977805;28;21035;-75
2021/10/09 09:41:46;;;;;;;0.80;0.70;;;;;;;19.87;100.00;-21220.06;4977875;28;21019;-76
2021/10/09 09:44:16;;;;;;;0.80;0.73;;;;;;;20.03;100.00;-21224.44;4986361;28;20447;-76
2021/10/09 09:47:00;;;;;;;0.80;0.80;;;;;;;19.53;100.00;-21211.03;4976407;28;20852;-75
2021/10/09 09:49:45;;;;;;;0.73;0.60;;;;;;;19.86;100.00;-21219.94;4958343;28;20452;-74
2021/10/09 09:52:12;;;;;;;3.63;1.07;;;;;;;19.92;100.00;-21221.56;4977233;28;20463;-75
2021/10/09 09:54:41;;;;;;;0.70;0.50;;;;;;;20.31;100.00;-21231.94;4976820;28;20925;-75
2021/10/09 09:57:12;;;;;;;1.00;0.90;;;;;;;20.07;100.00;-21225.53;4977996;28;20467;-75
2021/10/09 09:59:42;;;;;;;0.70;0.60;;;;;;;20.94;100.00;-21248.75;4976840;28;20439;-75
2021/10/09 10:02:10;;;;;;;1.10;0.97;;;;;;;20.54;100.00;-21238.09;4977053;28;20420;-74
2021/10/09 10:04:37;;;;;;;1.00;0.90;;;;;;;20.00;100.00;-21223.63;4976147;28;20447;-75
2021/10/09 10:07:05;;;;;;;1.03;0.90;;;;;;;21.52;100.00;-21264.28;4975989;28;20924;-74
2021/10/09 10:09:33;;;;;;;1.07;0.90;;;;;;;21.04;100.00;-21251.47;4973969;28;20436;-75
2021/10/09 10:12:06;;;;;;;0.80;0.73;;;;;;;20.65;100.00;-21241.09;4977350;28;20462;-74
2021/10/09 10:14:35;;;;;;;0.70;0.60;;;;;;;20.64;100.00;-21240.81;4977495;28;20412;-74
2021/10/09 10:17:02;;;;;;;0.70;0.60;;;;;;;21.31;100.00;-21258.56;4972757;28;20984;-75
2021/10/09 10:19:59;;;;;;;1.13;1.03;;;;;;;20.66;100.00;-21241.38;4972268;28;20768;-74
2021/10/09 10:22:59;;;;;;;0.83;0.83;;;;;;;20.24;100.00;-21230.03;4977185;28;20874;-74
2021/10/09 10:25:35;;;;;;;0.80;0.70;;;;;;;20.11;100.00;-21226.50;4975389;28;20513;-74
2021/10/09 10:28:05;;;;;;;0.80;0.60;;;;;;;21.02;100.00;-21250.78;4980273;28;20507;-74
2021/10/09 10:30:37;;;;;;;1.00;0.70;;;;;;;20.93;100.00;-21248.47;4974656;28;20453;-75
2021/10/09 10:33:30;;;;;;;1.17;0.90;;;;;;;22.57;100.00;-21292.22;4962173;28;20455;-74
2021/10/09 10:35:58;;;;;;;0.73;0.60;;;;;;;21.96;100.00;-21276.00;4959028;28;20436;-74
2021/10/09 10:38:47;;;;;;;1.53;1.43;;;;;;;21.65;100.00;-21267.84;4959363;28;20476;-74
2021/10/09 10:41:19;;;;;;;2.87;0.80;;;;;;;21.74;100.00;-21270.16;4974352;28;20506;-75
2021/10/09 10:43:51;;;;;;;0.80;0.80;;;;;;;22.91;100.00;-21301.34;4976615;28;20482;-75
2021/10/09 10:46:37;;;;;;;0.80;0.70;;;;;;;21.87;100.00;-21273.56;4981835;28;20416;-74
2021/10/09 10:49:35;;;;;;;0.80;0.80;;;;;;;22.02;100.00;-21277.66;4976370;28;20428;-75
2021/10/09 10:54:38;;;;;;;1.60;1.50;;;;;;;21.42;100.00;-21261.56;4993769;28;20436;-73
2021/10/09 10:57:29;;;;;;;0.80;0.70;;;;;;;21.73;100.00;-21269.75;4979009;28;20464;-75
2021/10/09 11:00:12;;;;;;;1.10;0.80;;;;;;;21.97;100.00;-21276.28;4965672;28;20464;-75
2021/10/09 11:03:12;;;;;;;0.80;0.73;;;;;;;21.95;100.00;-21275.75;4982993;28;20432;-75
2021/10/09 11:05:40;;;;;;;0.90;0.80;;;;;;;22.00;100.00;-21277.09;4981833;28;20486;-75
2021/10/09 11:08:13;;;;;;;1.30;1.20;;;;;;;21.97;100.00;-21276.28;4980385;28;20492;-73
2021/10/09 11:10:46;;;;;;;1.70;1.60;;;;;;;21.94;100.00;-21275.59;4998318;28;20945;-73
2021/10/09 11:13:14;;;;;;;0.80;0.80;;;;;;;21.63;100.00;-21267.28;4961596;28;20445;-73
2021/10/09 11:15:45;;;;;;;0.80;0.70;;;;;;;22.33;100.00;-21285.81;4978897;28;20800;-74
2021/10/09 11:18:15;;;;;;;0.90;0.70;;;;;;;21.99;100.00;-21276.84;4981064;28;20554;-73
2021/10/09 11:20:44;;;;;;;0.90;0.70;;;;;;;22.00;100.00;-21276.97;4980157;28;20436;-73
2021/10/09 11:23:15;;;;;;;1.33;1.23;;;;;;;22.10;100.00;-21279.81;4981142;28;20462;-73
2021/10/09 11:25:45;;;;;;;0.80;0.67;;;;;;;21.84;100.00;-21272.75;4982018;28;20412;-73
2021/10/09 11:28:18;;;;;;;0.80;0.67;;;;;;;21.62;100.00;-21267.03;4979584;28;20474;-74
2021/10/09 11:30:46;;;;;;;0.90;0.90;;;;;;;21.64;100.00;-21267.44;4974327;28;20458;-74
2021/10/09 11:33:21;;;;;;;0.83;0.83;;;;;;;21.64;100.00;-21267.56;4980789;28;20463;-73
2021/10/09 11:35:49;;;;;;;0.80;0.63;;;;;;;21.87;100.00;-21273.56;4986610;28;20446;-73
2021/10/09 11:38:23;;;;;;;0.97;0.87;;;;;;;21.97;100.00;-21276.28;4983594;28;20502;-74
2021/10/09 11:41:09;;;;;;;0.70;0.70;;;;;;;22.07;100.00;-21279.00;4981316;28;20447;-73
2021/10/09 11:43:51;;;;;;;0.77;0.70;;;;;;;21.83;100.00;-21272.59;4978684;28;20446;-73
2021/10/09 11:46:50;;;;;;;0.80;0.70;;;;;;;22.16;100.00;-21281.47;4978628;28;20447;-74
2021/10/09 11:55:22;;;;;;;0.80;0.70;;;;;;;21.77;100.00;-21270.84;4978650;28;20836;-73
2021/10/09 11:57:50;;;;;;;1.40;1.30;;;;;;;21.88;100.00;-21273.84;4977505;28;20430;-73
2021/10/09 12:00:40;;;;;;;0.70;0.60;;;;;;;21.95;100.00;-21275.75;4979880;28;20439;-73
2021/10/09 12:03:35;;;;;;;0.80;0.60;;;;;;;21.84;100.00;-21272.75;4981046;28;20925;-73
2021/10/09 12:06:11;;;;;;;0.80;0.70;;;;;;;21.95;100.00;-21275.75;4975319;28;20488;-73
2021/10/09 12:08:49;;;;;;;0.70;0.60;;;;;;;22.27;100.00;-21284.19;4978490;28;20550;-73
2021/10/09 12:11:25;;;;;;;1.40;1.30;;;;;;;21.96;100.00;-21276.00;4981852;28;20451;-73
2021/10/09 12:13:55;;;;;;;2.10;1.33;;;;;;;22.03;100.00;-21277.91;4981614;28;20439;-73
2021/10/09 12:16:28;;;;;;;0.97;0.90;;;;;;;21.89;100.00;-21274.09;4981035;28;20512;-73
2021/10/09 12:18:57;;;;;;;0.80;0.80;;;;;;;21.83;100.00;-21272.47;4978238;28;20442;-73
2021/10/09 12:21:28;;;;;;;0.80;0.80;;;;;;;21.94;100.00;-21275.59;4976134;28;20421;-72
2021/10/09 12:23:56;;;;;;;0.70;0.60;;;;;;;21.81;100.00;-21271.94;4960718;28;20511;-73
2021/10/09 12:26:25;;;;;;;0.80;0.70;;;;;;;21.38;100.00;-21260.47;4958454;28;20460;-73
2021/10/09 12:29:07;;;;;;;1.87;1.33;;;;;;;21.81;100.00;-21272.06;4955233;28;20402;-72
2021/10/09 12:31:37;;;;;;;0.70;0.60;;;;;;;21.60;100.00;-21266.47;4973234;28;20449;-73
2021/10/09 12:34:04;;;;;;;1.40;1.30;;;;;;;22.10;100.00;-21279.81;4972409;28;20476;-72
2021/10/09 12:36:38;;;;;;;0.70;0.60;;;;;;;22.15;100.00;-21281.19;4973692;28;20447;-73
2021/10/09 12:39:25;;;;;;;0.80;0.70;;;;;;;21.64;100.00;-21267.44;4974051;28;20508;-73
2021/10/09 12:41:54;;;;;;;0.77;0.70;;;;;;;21.95;100.00;-21275.88;4973892;28;20780;-73
2021/10/09 12:44:22;;;;;;;0.80;0.70;;;;;;;22.15;100.00;-21281.19;4967056;28;20431;-73
2021/10/09 12:46:49;;;;;;;0.80;0.70;;;;;;;22.27;100.00;-21284.19;4974383;28;20435;-73
2021/10/09 12:49:18;;;;;;;0.80;0.77;;;;;;;22.02;100.00;-21277.66;4971593;28;20970;-73
2021/10/09 12:51:48;;;;;;;1.67;1.00;;;;;;;22.08;100.00;-21279.16;4973701;28;20474;-74
2021/10/09 12:54:18;;;;;;;0.83;0.80;;;;;;;22.40;100.00;-21287.88;4973825;28;20565;-73
2021/10/09 12:56:46;;;;;;;0.70;0.70;;;;;;;22.36;100.00;-21286.66;4975045;28;20831;-73
2021/10/09 12:59:14;;;;;;;0.80;0.70;;;;;;;22.28;100.00;-21284.47;4973436;28;20566;-73
2021/10/09 13:01:41;;;;;;;0.83;0.83;;;;;;;22.83;100.00;-21299.31;4975389;28;20482;-73
2021/10/09 13:04:09;;;;;;;1.00;0.93;;;;;;;23.08;100.00;-21305.97;4972386;28;20482;-73
2021/10/09 13:06:36;;;;;;;4.10;1.57;;;;;;;22.99;100.00;-21303.53;4974823;28;20916;-72
2021/10/09 13:09:05;;;;;;;1.00;0.80;;;;;;;22.53;100.00;-21291.13;4978356;28;20960;-73
2021/10/09 13:11:42;;;;;;;1.10;1.00;;;;;;;22.48;100.00;-21289.91;4978688;28;20768;-72
2021/10/09 13:14:09;;;;;;;1.13;1.03;;;;;;;22.50;100.00;-21290.31;4973844;28;20481;-73
2021/10/09 13:16:36;;;;;;;0.80;0.70;;;;;;;22.73;100.00;-21296.44;4980265;28;20431;-73
2021/10/09 13:19:06;;;;;;;0.70;0.63;;;;;;;22.51;100.00;-21290.59;4977394;28;20463;-72
2021/10/09 13:21:34;;;;;;;0.90;0.60;;;;;;;22.99;100.00;-21303.53;4978807;28;20471;-72
2021/10/09 13:24:01;;;;;;;1.03;0.90;;;;;;;22.81;100.00;-21298.63;4978146;28;20459;-73
2021/10/09 13:26:31;;;;;;;0.87;0.87;;;;;;;23.27;100.00;-21310.88;4977660;28;20924;-73
2021/10/09 13:28:58;;;;;;;1.03;0.93;;;;;;;22.94;100.00;-21302.16;4969467;28;20483;-74
2021/10/09 13:31:26;;;;;;;0.70;0.70;;;;;;;23.10;100.00;-21306.50;4959282;29;20451;-73
2021/10/09 13:33:57;;;;;;;0.70;0.50;;;;;;;22.87;100.00;-21300.25;4983163;28;20546;-73
2021/10/09 13:36:25;;;;;;;0.70;0.60;;;;;;;23.00;100.00;-21303.66;4976543;28;21039;-73
2021/10/09 13:38:55;;;;;;;0.70;0.53;;;;;;;22.66;100.00;-21294.81;4974400;28;20495;-73
2021/10/09 13:41:22;;;;;;;0.70;0.60;;;;;;;22.48;100.00;-21289.78;4967322;28;20427;-73
2021/10/09 13:43:50;;;;;;;0.70;0.60;;;;;;;22.79;100.00;-21298.06;4967686;28;20499;-73
2021/10/09 13:46:19;;;;;;;0.70;0.60;;;;;;;22.99;100.00;-21303.53;4959179;29;20788;-73
2021/10/09 13:48:48;;;;;;;1.00;0.90;;;;;;;23.26;100.00;-21310.72;4982921;28;20447;-73